sensor_id;sensor_type;location;lat;lon;timestamp;temperature;humidity
43528;DHT22;52359;42.658;23.320;2022-09-09T00:56:06;19.70;99.90
43528;DHT22;52359;42.658;23.320;2022-09-09T00:57:59;19.40;99.90
43528;DHT22;52359;42.658;23.320;2022-09-09T01:00:28;19.20;99.90
43528;DHT22;52359;42.658;23.320;2022-09-09T01:11:01;19.20;99.90
43528;DHT22;52359;42.658;23.320;2022-09-09T01:13:32;19.30;99.90
43528;DHT22;52359;42.658;23.320;2022-09-09T01:16:00;19.70;99.90
43528;DHT22;52359;42.658;23.320;2022-09-09T01:18:39;19.50;99.90
43528;DHT22;52359;42.658;23.320;2022-09-09T01:21:32;19.70;99.90
43528;DHT22;52359;42.658;23.320;2022-09-09T01:26:45;19.40;99.90
43528;DHT22;52359;42.658;23.320;2022-09-09T01:29:14;19.30;99.90
43528;DHT22;52359;42.658;23.320;2022-09-09T01:34:24;19.00;99.90
43528;DHT22;52359;42.658;23.320;2022-09-09T01:37:02;19.40;99.90
43528;DHT22;52359;42.658;23.320;2022-09-09T01:39:30;19.40;99.90
43528;DHT22;52359;42.658;23.320;2022-09-09T01:41:56;19.20;99.90
43528;DHT22;52359;42.658;23.320;2022-09-09T01:44:23;18.40;99.90
43528;DHT22;52359;42.658;23.320;2022-09-09T01:46:50;18.10;99.90
43528;DHT22;52359;42.658;23.320;2022-09-09T01:49:16;17.80;99.90
43528;DHT22;52359;42.658;23.320;2022-09-09T01:51:43;17.60;99.90
43528;DHT22;52359;42.658;23.320;2022-09-09T01:54:09;18.10;99.90
43528;DHT22;52359;42.658;23.320;2022-09-09T01:56:47;18.60;99.90
43528;DHT22;52359;42.658;23.320;2022-09-09T01:59:48;18.80;99.90
43528;DHT22;52359;42.658;23.320;2022-09-09T02:02:19;19.00;99.90
43528;DHT22;52359;42.658;23.320;2022-09-09T02:04:49;19.00;99.90
43528;DHT22;52359;42.658;23.320;2022-09-09T02:09:48;19.10;99.90
43528;DHT22;52359;42.658;23.320;2022-09-09T02:12:16;18.90;99.90
43528;DHT22;52359;42.658;23.320;2022-09-09T02:14:52;18.90;99.90
43528;DHT22;52359;42.658;23.320;2022-09-09T02:17:27;19.00;99.90
43528;DHT22;52359;42.658;23.320;2022-09-09T02:20:05;18.90;99.90
43528;DHT22;52359;42.658;23.320;2022-09-09T02:22:33;18.00;99.90
43528;DHT22;52359;42.658;23.320;2022-09-09T02:25:00;17.80;99.90
43528;DHT22;52359;42.658;23.320;2022-09-09T02:27:26;17.50;99.90
43528;DHT22;52359;42.658;23.320;2022-09-09T02:29:53;17.50;99.90
43528;DHT22;52359;42.658;23.320;2022-09-09T02:32:23;18.10;99.90
43528;DHT22;52359;42.658;23.320;2022-09-09T02:34:53;18.50;99.90
43528;DHT22;52359;42.658;23.320;2022-09-09T02:37:24;18.60;99.90
43528;DHT22;52359;42.658;23.320;2022-09-09T02:39:50;18.40;99.90
43528;DHT22;52359;42.658;23.320;2022-09-09T02:42:16;18.40;99.90
43528;DHT22;52359;42.658;23.320;2022-09-09T02:44:42;18.60;99.90
43528;DHT22;52359;42.658;23.320;2022-09-09T02:47:25;18.90;99.90
43528;DHT22;52359;42.658;23.320;2022-09-09T02:55:25;18.20;99.90
43528;DHT22;52359;42.658;23.320;2022-09-09T02:57:52;17.80;99.90
43528;DHT22;52359;42.658;23.320;2022-09-09T03:00:25;17.60;99.90
43528;DHT22;52359;42.658;23.320;2022-09-09T03:02:50;17.70;99.90
43528;DHT22;52359;42.658;23.320;2022-09-09T03:05:17;18.40;99.90
43528;DHT22;52359;42.658;23.320;2022-09-09T03:07:42;18.70;99.90
43528;DHT22;52359;42.658;23.320;2022-09-09T03:10:08;18.80;99.90
43528;DHT22;52359;42.658;23.320;2022-09-09T03:12:35;18.80;99.90
43528;DHT22;52359;42.658;23.320;2022-09-09T03:15:02;19.00;99.90
43528;DHT22;52359;42.658;23.320;2022-09-09T03:17:28;18.80;99.90
43528;DHT22;52359;42.658;23.320;2022-09-09T03:19:53;18.70;99.90
43528;DHT22;52359;42.658;23.320;2022-09-09T03:22:20;18.70;99.90
43528;DHT22;52359;42.658;23.320;2022-09-09T03:24:46;18.40;99.90
43528;DHT22;52359;42.658;23.320;2022-09-09T03:27:12;17.90;99.90
43528;DHT22;52359;42.658;23.320;2022-09-09T03:29:39;17.50;99.90
43528;DHT22;52359;42.658;23.320;2022-09-09T03:32:05;17.30;99.90
43528;DHT22;52359;42.658;23.320;2022-09-09T03:34:31;17.40;99.90
43528;DHT22;52359;42.658;23.320;2022-09-09T03:36:57;17.80;99.90
43528;DHT22;52359;42.658;23.320;2022-09-09T03:39:23;18.30;99.90
43528;DHT22;52359;42.658;23.320;2022-09-09T03:41:48;18.40;99.90
43528;DHT22;52359;42.658;23.320;2022-09-09T03:44:14;18.40;99.90
43528;DHT22;52359;42.658;23.320;2022-09-09T03:46:40;18.30;99.90
43528;DHT22;52359;42.658;23.320;2022-09-09T03:49:06;18.10;99.90
43528;DHT22;52359;42.658;23.320;2022-09-09T03:51:31;18.30;99.90
43528;DHT22;52359;42.658;23.320;2022-09-09T03:54:02;17.90;99.90
43528;DHT22;52359;42.658;23.320;2022-09-09T03:56:30;17.40;99.90
43528;DHT22;52359;42.658;23.320;2022-09-09T04:01:23;16.80;99.90
43528;DHT22;52359;42.658;23.320;2022-09-09T04:38:13;18.10;99.90
43528;DHT22;52359;42.658;23.320;2022-09-09T04:40:41;18.00;99.90
43528;DHT22;52359;42.658;23.320;2022-09-09T04:43:08;18.40;99.90
43528;DHT22;52359;42.658;23.320;2022-09-09T04:45:35;18.60;99.90
43528;DHT22;52359;42.658;23.320;2022-09-09T04:48:01;18.50;99.90
43528;DHT22;52359;42.658;23.320;2022-09-09T04:50:27;18.70;99.90
43528;DHT22;52359;42.658;23.320;2022-09-09T04:52:54;18.10;99.90
43528;DHT22;52359;42.658;23.320;2022-09-09T04:55:19;17.60;99.90
43528;DHT22;52359;42.658;23.320;2022-09-09T04:57:45;17.60;99.90
43528;DHT22;52359;42.658;23.320;2022-09-09T05:00:12;17.60;99.90
43528;DHT22;52359;42.658;23.320;2022-09-09T05:02:39;17.90;99.90
43528;DHT22;52359;42.658;23.320;2022-09-09T05:05:05;18.40;99.90
43528;DHT22;52359;42.658;23.320;2022-09-09T05:07:31;18.90;99.90
43528;DHT22;52359;42.658;23.320;2022-09-09T05:09:57;19.10;99.90
43528;DHT22;52359;42.658;23.320;2022-09-09T05:12:23;19.30;99.90
43528;DHT22;52359;42.658;23.320;2022-09-09T05:14:52;19.40;99.90
43528;DHT22;52359;42.658;23.320;2022-09-09T05:17:18;19.40;99.90
43528;DHT22;52359;42.658;23.320;2022-09-09T05:19:44;19.30;99.90
43528;DHT22;52359;42.658;23.320;2022-09-09T05:22:10;18.80;99.90
43528;DHT22;52359;42.658;23.320;2022-09-09T05:24:37;18.50;99.90
43528;DHT22;52359;42.658;23.320;2022-09-09T05:27:03;18.50;99.90
43528;DHT22;52359;42.658;23.320;2022-09-09T05:29:31;18.70;99.90
43528;DHT22;52359;42.658;23.320;2022-09-09T05:31:59;19.50;99.90
43528;DHT22;52359;42.658;23.320;2022-09-09T05:34:25;20.00;99.90
43528;DHT22;52359;42.658;23.320;2022-09-09T05:36:50;20.20;99.90
43528;DHT22;52359;42.658;23.320;2022-09-09T05:39:17;20.60;99.90
43528;DHT22;52359;42.658;23.320;2022-09-09T05:41:43;20.60;99.90
43528;DHT22;52359;42.658;23.320;2022-09-09T05:44:09;20.40;99.90
43528;DHT22;52359;42.658;23.320;2022-09-09T05:46:35;20.40;99.90
43528;DHT22;52359;42.658;23.320;2022-09-09T05:49:02;19.90;99.90
43528;DHT22;52359;42.658;23.320;2022-09-09T05:51:28;19.50;99.90
43528;DHT22;52359;42.658;23.320;2022-09-09T05:53:55;19.50;99.90
43528;DHT22;52359;42.658;23.320;2022-09-09T05:56:28;19.60;99.90
43528;DHT22;52359;42.658;23.320;2022-09-09T05:58:55;20.40;99.90
43528;DHT22;52359;42.658;23.320;2022-09-09T06:01:27;20.50;99.90
43528;DHT22;52359;42.658;23.320;2022-09-09T06:03:54;20.90;99.90
43528;DHT22;52359;42.658;23.320;2022-09-09T06:06:25;21.00;99.90
43528;DHT22;52359;42.658;23.320;2022-09-09T06:08:55;21.20;99.90
43528;DHT22;52359;42.658;23.320;2022-09-09T06:11:30;21.60;99.90
43528;DHT22;52359;42.658;23.320;2022-09-09T06:13:59;22.10;99.90
43528;DHT22;52359;42.658;23.320;2022-09-09T06:16:27;21.80;99.90
43528;DHT22;52359;42.658;23.320;2022-09-09T06:18:54;21.20;99.90
43528;DHT22;52359;42.658;23.320;2022-09-09T06:21:36;21.10;99.90
43528;DHT22;52359;42.658;23.320;2022-09-09T06:24:06;21.30;99.90
43528;DHT22;52359;42.658;23.320;2022-09-09T06:26:34;21.50;99.90
43528;DHT22;52359;42.658;23.320;2022-09-09T06:29:01;22.40;99.90
43528;DHT22;52359;42.658;23.320;2022-09-09T06:31:30;22.90;99.90
43528;DHT22;52359;42.658;23.320;2022-09-09T06:33:58;23.00;99.90
43528;DHT22;52359;42.658;23.320;2022-09-09T06:36:32;23.50;99.90
43528;DHT22;52359;42.658;23.320;2022-09-09T06:39:02;23.90;99.90
43528;DHT22;52359;42.658;23.320;2022-09-09T06:41:31;24.00;99.90
43528;DHT22;52359;42.658;23.320;2022-09-09T06:43:58;24.20;99.90
43528;DHT22;52359;42.658;23.320;2022-09-09T10:55:16;28.80;80.90
43528;DHT22;52359;42.658;23.320;2022-09-09T10:57:46;28.50;82.10
43528;DHT22;52359;42.658;23.320;2022-09-09T11:00:25;28.20;83.60
43528;DHT22;52359;42.658;23.320;2022-09-09T11:03:02;28.20;83.90
43528;DHT22;52359;42.658;23.320;2022-09-09T11:05:49;28.10;83.00
43528;DHT22;52359;42.658;23.320;2022-09-09T11:10:53;27.90;84.60
43528;DHT22;52359;42.658;23.320;2022-09-09T11:13:41;28.00;84.90
43528;DHT22;52359;42.658;23.320;2022-09-09T11:19:10;28.00;86.30
43528;DHT22;52359;42.658;23.320;2022-09-09T11:33:24;28.20;90.30
43528;DHT22;52359;42.658;23.320;2022-09-09T11:41:35;28.50;90.20
43528;DHT22;52359;42.658;23.320;2022-09-09T11:44:17;28.30;90.40
43528;DHT22;52359;42.658;23.320;2022-09-09T11:46:46;28.40;90.40
43528;DHT22;52359;42.658;23.320;2022-09-09T11:49:47;28.30;90.80
43528;DHT22;52359;42.658;23.320;2022-09-09T11:52:37;28.20;90.60
43528;DHT22;52359;42.658;23.320;2022-09-09T11:55:43;28.20;90.70
43528;DHT22;52359;42.658;23.320;2022-09-09T12:03:31;29.20;91.20
43528;DHT22;52359;42.658;23.320;2022-09-09T12:13:20;31.40;87.80
43528;DHT22;52359;42.658;23.320;2022-09-09T16:19:51;26.10;90.70
43528;DHT22;52359;42.658;23.320;2022-09-09T16:22:16;26.10;91.30
43528;DHT22;52359;42.658;23.320;2022-09-09T16:24:43;25.80;91.40
43528;DHT22;52359;42.658;23.320;2022-09-09T16:27:10;25.70;91.70
43528;DHT22;52359;42.658;23.320;2022-09-09T16:29:36;25.60;91.90
43528;DHT22;52359;42.658;23.320;2022-09-09T16:32:02;25.50;92.00
43528;DHT22;52359;42.658;23.320;2022-09-09T16:34:28;25.50;92.20
43528;DHT22;52359;42.658;23.320;2022-09-09T16:36:54;25.40;92.40
43528;DHT22;52359;42.658;23.320;2022-09-09T16:39:20;25.30;92.60
43528;DHT22;52359;42.658;23.320;2022-09-09T16:41:47;25.40;92.70
43528;DHT22;52359;42.658;23.320;2022-09-09T16:44:15;25.20;92.60
43528;DHT22;52359;42.658;23.320;2022-09-09T16:46:42;25.30;92.70
43528;DHT22;52359;42.658;23.320;2022-09-09T16:49:10;25.30;93.10
43528;DHT22;52359;42.658;23.320;2022-09-09T16:51:45;25.00;93.60
43528;DHT22;52359;42.658;23.320;2022-09-09T16:54:12;24.90;94.10
43528;DHT22;52359;42.658;23.320;2022-09-09T16:56:41;25.00;93.80
43528;DHT22;52359;42.658;23.320;2022-09-09T16:59:18;24.80;93.90
43528;DHT22;52359;42.658;23.320;2022-09-09T17:01:47;24.90;94.00
43528;DHT22;52359;42.658;23.320;2022-09-09T17:06:47;24.80;92.30
43528;DHT22;52359;42.658;23.320;2022-09-09T17:09:14;24.60;92.90
43528;DHT22;52359;42.658;23.320;2022-09-09T17:11:41;24.60;93.10
43528;DHT22;52359;42.658;23.320;2022-09-09T17:14:08;24.70;93.70
43528;DHT22;52359;42.658;23.320;2022-09-09T17:16:35;24.50;94.30
43528;DHT22;52359;42.658;23.320;2022-09-09T17:19:02;24.40;95.10
43528;DHT22;52359;42.658;23.320;2022-09-09T17:21:29;24.40;95.30
43528;DHT22;52359;42.658;23.320;2022-09-09T17:23:56;24.30;94.90
43528;DHT22;52359;42.658;23.320;2022-09-09T17:26:24;24.40;94.30
43528;DHT22;52359;42.658;23.320;2022-09-09T17:28:52;24.30;94.30
43528;DHT22;52359;42.658;23.320;2022-09-09T17:31:18;24.20;95.20
43528;DHT22;52359;42.658;23.320;2022-09-09T17:33:46;24.10;95.90
43528;DHT22;52359;42.658;23.320;2022-09-09T17:36:21;24.10;95.70
43528;DHT22;52359;42.658;23.320;2022-09-09T17:38:48;24.00;95.90
43528;DHT22;52359;42.658;23.320;2022-09-09T17:41:24;24.00;95.80
43528;DHT22;52359;42.658;23.320;2022-09-09T17:43:50;23.90;96.20
43528;DHT22;52359;42.658;23.320;2022-09-09T17:46:24;23.80;96.20
43528;DHT22;52359;42.658;23.320;2022-09-09T17:48:54;23.80;96.20
43528;DHT22;52359;42.658;23.320;2022-09-09T17:51:22;23.60;96.40
43528;DHT22;52359;42.658;23.320;2022-09-09T17:53:55;23.60;96.70
43528;DHT22;52359;42.658;23.320;2022-09-09T17:56:22;23.50;96.90
43528;DHT22;52359;42.658;23.320;2022-09-09T17:58:52;23.50;97.30
43528;DHT22;52359;42.658;23.320;2022-09-09T18:01:26;23.60;97.40
43528;DHT22;52359;42.658;23.320;2022-09-09T18:03:54;23.40;98.30
43528;DHT22;52359;42.658;23.320;2022-09-09T18:06:24;23.40;98.40
43528;DHT22;52359;42.658;23.320;2022-09-09T18:08:57;23.20;98.40
43528;DHT22;52359;42.658;23.320;2022-09-09T18:11:26;23.40;97.70
43528;DHT22;52359;42.658;23.320;2022-09-09T18:13:54;23.40;97.80
43528;DHT22;52359;42.658;23.320;2022-09-09T18:16:21;23.50;98.00
43528;DHT22;52359;42.658;23.320;2022-09-09T18:18:48;23.50;98.60
43528;DHT22;52359;42.658;23.320;2022-09-09T18:21:18;23.40;98.50
43528;DHT22;52359;42.658;23.320;2022-09-09T18:23:45;23.40;98.70
43528;DHT22;52359;42.658;23.320;2022-09-09T18:26:22;23.40;98.90
43528;DHT22;52359;42.658;23.320;2022-09-09T18:28:56;23.30;99.20
43528;DHT22;52359;42.658;23.320;2022-09-09T18:31:25;23.30;99.40
43528;DHT22;52359;42.658;23.320;2022-09-09T18:33:55;23.20;99.50
43528;DHT22;52359;42.658;23.320;2022-09-09T18:36:24;23.40;99.30
43528;DHT22;52359;42.658;23.320;2022-09-09T18:38:50;23.40;99.30
43528;DHT22;52359;42.658;23.320;2022-09-09T18:41:20;23.30;99.70
43528;DHT22;52359;42.658;23.320;2022-09-09T18:43:47;23.10;99.90
43528;DHT22;52359;42.658;23.320;2022-09-09T18:46:14;23.30;99.90
43528;DHT22;52359;42.658;23.320;2022-09-09T18:48:44;23.30;99.90
43528;DHT22;52359;42.658;23.320;2022-09-09T18:51:11;23.30;99.90
43528;DHT22;52359;42.658;23.320;2022-09-09T18:53:37;23.30;99.90
43528;DHT22;52359;42.658;23.320;2022-09-09T18:56:06;23.10;99.90
43528;DHT22;52359;42.658;23.320;2022-09-09T18:58:33;23.00;99.90
43528;DHT22;52359;42.658;23.320;2022-09-09T19:00:59;23.20;99.90
43528;DHT22;52359;42.658;23.320;2022-09-09T19:03:27;23.20;99.90
43528;DHT22;52359;42.658;23.320;2022-09-09T19:05:53;23.10;99.90
43528;DHT22;52359;42.658;23.320;2022-09-09T19:08:24;23.20;99.90
43528;DHT22;52359;42.658;23.320;2022-09-09T19:10:50;23.00;99.90
43528;DHT22;52359;42.658;23.320;2022-09-09T19:13:16;23.00;99.90
43528;DHT22;52359;42.658;23.320;2022-09-09T19:15:42;23.00;99.90
43528;DHT22;52359;42.658;23.320;2022-09-09T19:18:08;22.90;99.90
43528;DHT22;52359;42.658;23.320;2022-09-09T19:20:33;22.80;99.90
43528;DHT22;52359;42.658;23.320;2022-09-09T19:22:59;22.70;99.90
43528;DHT22;52359;42.658;23.320;2022-09-09T19:25:25;22.70;99.90
43528;DHT22;52359;42.658;23.320;2022-09-09T19:27:51;22.80;99.90
43528;DHT22;52359;42.658;23.320;2022-09-09T19:30:17;22.80;99.90
43528;DHT22;52359;42.658;23.320;2022-09-09T19:32:43;22.70;99.90
43528;DHT22;52359;42.658;23.320;2022-09-09T19:35:09;22.80;99.90
43528;DHT22;52359;42.658;23.320;2022-09-09T19:37:35;22.80;99.90
43528;DHT22;52359;42.658;23.320;2022-09-09T19:40:02;22.60;99.90
43528;DHT22;52359;42.658;23.320;2022-09-09T19:42:29;22.60;99.90
43528;DHT22;52359;42.658;23.320;2022-09-09T19:44:56;22.50;99.90
43528;DHT22;52359;42.658;23.320;2022-09-09T19:47:22;22.50;99.90
43528;DHT22;52359;42.658;23.320;2022-09-09T19:49:48;22.70;99.90
43528;DHT22;52359;42.658;23.320;2022-09-09T19:52:17;22.50;99.90
43528;DHT22;52359;42.658;23.320;2022-09-09T19:54:44;22.60;99.90
43528;DHT22;52359;42.658;23.320;2022-09-09T19:57:11;22.50;99.90
43528;DHT22;52359;42.658;23.320;2022-09-09T19:59:36;22.60;99.90
43528;DHT22;52359;42.658;23.320;2022-09-09T20:02:02;22.20;99.90
43528;DHT22;52359;42.658;23.320;2022-09-09T20:04:31;22.40;99.90
43528;DHT22;52359;42.658;23.320;2022-09-09T20:06:58;22.50;99.90
43528;DHT22;52359;42.658;23.320;2022-09-09T20:09:24;22.30;99.90
43528;DHT22;52359;42.658;23.320;2022-09-09T20:11:53;22.20;99.90
43528;DHT22;52359;42.658;23.320;2022-09-09T20:14:18;22.40;99.90
43528;DHT22;52359;42.658;23.320;2022-09-09T20:16:44;22.40;99.90
43528;DHT22;52359;42.658;23.320;2022-09-09T20:19:12;22.10;99.90
43528;DHT22;52359;42.658;23.320;2022-09-09T20:21:43;22.20;99.90
43528;DHT22;52359;42.658;23.320;2022-09-09T20:24:13;22.10;99.90
43528;DHT22;52359;42.658;23.320;2022-09-09T20:26:39;22.20;99.90
43528;DHT22;52359;42.658;23.320;2022-09-09T20:29:10;21.90;99.90
43528;DHT22;52359;42.658;23.320;2022-09-09T20:31:38;22.00;99.90
43528;DHT22;52359;42.658;23.320;2022-09-09T20:34:13;22.10;99.90
43528;DHT22;52359;42.658;23.320;2022-09-09T20:36:40;22.10;99.90
43528;DHT22;52359;42.658;23.320;2022-09-09T20:39:12;22.20;99.90
43528;DHT22;52359;42.658;23.320;2022-09-09T20:41:39;22.10;99.90
43528;DHT22;52359;42.658;23.320;2022-09-09T20:44:14;22.40;99.90
43528;DHT22;52359;42.658;23.320;2022-09-09T20:46:46;23.00;99.90
43528;DHT22;52359;42.658;23.320;2022-09-09T20:49:19;23.50;99.90
43528;DHT22;52359;42.658;23.320;2022-09-09T20:51:47;23.90;99.90
43528;DHT22;52359;42.658;23.320;2022-09-09T20:54:19;24.20;99.90
43528;DHT22;52359;42.658;23.320;2022-09-09T20:56:47;24.10;99.90
43528;DHT22;52359;42.658;23.320;2022-09-09T20:59:18;24.20;99.90
43528;DHT22;52359;42.658;23.320;2022-09-09T21:01:44;23.90;99.90
43528;DHT22;52359;42.658;23.320;2022-09-09T21:04:13;23.90;99.90
43528;DHT22;52359;42.658;23.320;2022-09-09T21:06:39;23.90;99.90
43528;DHT22;52359;42.658;23.320;2022-09-09T21:09:05;24.10;99.90
43528;DHT22;52359;42.658;23.320;2022-09-09T21:11:32;24.10;99.90
43528;DHT22;52359;42.658;23.320;2022-09-09T21:13:59;24.20;99.90
43528;DHT22;52359;42.658;23.320;2022-09-09T21:16:25;24.10;99.90
43528;DHT22;52359;42.658;23.320;2022-09-09T21:18:52;23.90;99.90
43528;DHT22;52359;42.658;23.320;2022-09-09T21:21:18;23.90;99.90
43528;DHT22;52359;42.658;23.320;2022-09-09T21:23:44;23.90;99.90
43528;DHT22;52359;42.658;23.320;2022-09-09T21:26:10;23.90;99.90
43528;DHT22;52359;42.658;23.320;2022-09-09T21:28:36;23.90;99.90
43528;DHT22;52359;42.658;23.320;2022-09-09T21:31:02;23.80;99.90
43528;DHT22;52359;42.658;23.320;2022-09-09T21:33:28;23.70;99.90
43528;DHT22;52359;42.658;23.320;2022-09-09T21:35:55;23.60;99.90
43528;DHT22;52359;42.658;23.320;2022-09-09T21:38:25;23.80;99.90
43528;DHT22;52359;42.658;23.320;2022-09-09T21:40:51;23.80;99.90
43528;DHT22;52359;42.658;23.320;2022-09-09T21:43:19;23.80;99.90
43528;DHT22;52359;42.658;23.320;2022-09-09T21:45:45;23.60;99.90
43528;DHT22;52359;42.658;23.320;2022-09-09T21:48:13;23.50;99.90
43528;DHT22;52359;42.658;23.320;2022-09-09T21:50:41;23.40;99.90
43528;DHT22;52359;42.658;23.320;2022-09-09T21:53:07;23.30;99.90
43528;DHT22;52359;42.658;23.320;2022-09-09T21:55:38;23.40;99.90
43528;DHT22;52359;42.658;23.320;2022-09-09T21:58:10;23.50;99.90
43528;DHT22;52359;42.658;23.320;2022-09-09T22:00:42;23.50;99.90
43528;DHT22;52359;42.658;23.320;2022-09-09T22:03:14;23.50;99.90
43528;DHT22;52359;42.658;23.320;2022-09-09T22:05:41;23.40;99.90
43528;DHT22;52359;42.658;23.320;2022-09-09T22:08:09;23.60;99.90
43528;DHT22;52359;42.658;23.320;2022-09-09T22:10:36;23.40;99.90
43528;DHT22;52359;42.658;23.320;2022-09-09T22:13:03;23.50;99.90
43528;DHT22;52359;42.658;23.320;2022-09-09T22:15:28;23.50;99.90
43528;DHT22;52359;42.658;23.320;2022-09-09T22:17:58;23.60;99.90
43528;DHT22;52359;42.658;23.320;2022-09-09T22:20:26;23.80;99.90
